sensor_id;sensor_type;location;lat;lon;timestamp;temperature;humidity
47590;DHT22;33316;52.298;9.056;2023-12-20T00:01:03;8.70;99.90
47590;DHT22;33316;52.298;9.056;2023-12-20T00:03:30;8.70;99.90
47590;DHT22;33316;52.298;9.056;2023-12-20T00:05:57;8.70;99.90
47590;DHT22;33316;52.298;9.056;2023-12-20T00:08:24;8.70;99.90
47590;DHT22;33316;52.298;9.056;2023-12-20T00:10:53;8.60;99.90
47590;DHT22;33316;52.298;9.056;2023-12-20T00:13:20;8.60;99.90
47590;DHT22;33316;52.298;9.056;2023-12-20T00:15:46;8.60;99.90
47590;DHT22;33316;52.298;9.056;2023-12-20T00:18:13;8.60;99.90
47590;DHT22;33316;52.298;9.056;2023-12-20T00:20:40;8.60;99.90
47590;DHT22;33316;52.298;9.056;2023-12-20T00:23:07;8.50;99.90
47590;DHT22;33316;52.298;9.056;2023-12-20T00:25:34;8.50;99.90
47590;DHT22;33316;52.298;9.056;2023-12-20T00:28:03;8.50;99.90
47590;DHT22;33316;52.298;9.056;2023-12-20T00:30:30;8.50;99.90
47590;DHT22;33316;52.298;9.056;2023-12-20T00:32:57;8.50;99.90
47590;DHT22;33316;52.298;9.056;2023-12-20T00:35:24;8.50;99.90
47590;DHT22;33316;52.298;9.056;2023-12-20T00:37:51;8.40;99.90
47590;DHT22;33316;52.298;9.056;2023-12-20T00:40:18;8.40;99.90
47590;DHT22;33316;52.298;9.056;2023-12-20T00:42:46;8.40;99.90
47590;DHT22;33316;52.298;9.056;2023-12-20T00:45:15;8.40;99.90
47590;DHT22;33316;52.298;9.056;2023-12-20T00:47:42;8.40;99.90
47590;DHT22;33316;52.298;9.056;2023-12-20T00:50:09;8.40;99.90
47590;DHT22;33316;52.298;9.056;2023-12-20T00:52:36;8.40;99.90
47590;DHT22;33316;52.298;9.056;2023-12-20T00:55:03;8.40;99.90
47590;DHT22;33316;52.298;9.056;2023-12-20T00:57:31;8.40;99.90
47590;DHT22;33316;52.298;9.056;2023-12-20T00:59:58;8.40;99.90
47590;DHT22;33316;52.298;9.056;2023-12-20T01:02:26;8.40;99.90
47590;DHT22;33316;52.298;9.056;2023-12-20T01:04:53;8.40;99.90
47590;DHT22;33316;52.298;9.056;2023-12-20T01:07:20;8.40;99.90
47590;DHT22;33316;52.298;9.056;2023-12-20T01:09:48;8.40;99.90
47590;DHT22;33316;52.298;9.056;2023-12-20T01:12:15;8.30;99.90
47590;DHT22;33316;52.298;9.056;2023-12-20T01:14:43;8.30;99.90
47590;DHT22;33316;52.298;9.056;2023-12-20T01:17:10;8.30;99.90
47590;DHT22;33316;52.298;9.056;2023-12-20T01:19:38;8.30;99.90
47590;DHT22;33316;52.298;9.056;2023-12-20T01:22:05;8.30;99.90
47590;DHT22;33316;52.298;9.056;2023-12-20T01:24:32;8.30;99.90
47590;DHT22;33316;52.298;9.056;2023-12-20T01:26:59;8.30;99.90
47590;DHT22;33316;52.298;9.056;2023-12-20T01:29:26;8.30;99.90
47590;DHT22;33316;52.298;9.056;2023-12-20T01:31:53;8.30;99.90
47590;DHT22;33316;52.298;9.056;2023-12-20T01:34:20;8.30;99.90
47590;DHT22;33316;52.298;9.056;2023-12-20T01:36:49;8.30;99.90
47590;DHT22;33316;52.298;9.056;2023-12-20T01:39:17;8.20;99.90
47590;DHT22;33316;52.298;9.056;2023-12-20T01:41:44;8.30;99.90
47590;DHT22;33316;52.298;9.056;2023-12-20T01:44:11;8.20;99.90
47590;DHT22;33316;52.298;9.056;2023-12-20T01:46:38;8.20;99.90
47590;DHT22;33316;52.298;9.056;2023-12-20T01:49:06;8.20;99.90
47590;DHT22;33316;52.298;9.056;2023-12-20T01:51:34;8.20;99.90
47590;DHT22;33316;52.298;9.056;2023-12-20T01:54:02;8.20;99.90
47590;DHT22;33316;52.298;9.056;2023-12-20T01:56:31;8.10;99.90
47590;DHT22;33316;52.298;9.056;2023-12-20T01:58:59;8.10;99.90
47590;DHT22;33316;52.298;9.056;2023-12-20T02:01:27;8.10;99.90
47590;DHT22;33316;52.298;9.056;2023-12-20T02:03:55;8.10;99.90
47590;DHT22;33316;52.298;9.056;2023-12-20T02:06:23;8.00;99.90
47590;DHT22;33316;52.298;9.056;2023-12-20T02:08:51;8.00;99.90
47590;DHT22;33316;52.298;9.056;2023-12-20T02:11:19;8.00;99.90
47590;DHT22;33316;52.298;9.056;2023-12-20T02:13:47;8.00;99.90
47590;DHT22;33316;52.298;9.056;2023-12-20T02:16:14;8.00;99.90
47590;DHT22;33316;52.298;9.056;2023-12-20T02:18:42;8.00;99.90
47590;DHT22;33316;52.298;9.056;2023-12-20T02:21:10;7.90;99.90
47590;DHT22;33316;52.298;9.056;2023-12-20T02:23:38;7.90;99.90
47590;DHT22;33316;52.298;9.056;2023-12-20T02:26:05;7.90;99.90
47590;DHT22;33316;52.298;9.056;2023-12-20T02:28:33;7.80;99.90
47590;DHT22;33316;52.298;9.056;2023-12-20T02:31:01;7.80;99.90
47590;DHT22;33316;52.298;9.056;2023-12-20T02:33:28;7.80;99.90
47590;DHT22;33316;52.298;9.056;2023-12-20T02:35:55;7.90;99.90
47590;DHT22;33316;52.298;9.056;2023-12-20T02:38:21;7.80;99.90
47590;DHT22;33316;52.298;9.056;2023-12-20T02:40:50;7.80;99.90
47590;DHT22;33316;52.298;9.056;2023-12-20T02:43:17;7.80;99.90
47590;DHT22;33316;52.298;9.056;2023-12-20T02:45:43;7.70;99.90
47590;DHT22;33316;52.298;9.056;2023-12-20T02:48:10;7.70;99.90
47590;DHT22;33316;52.298;9.056;2023-12-20T02:50:37;7.70;99.90
47590;DHT22;33316;52.298;9.056;2023-12-20T02:53:17;7.70;99.90
47590;DHT22;33316;52.298;9.056;2023-12-20T02:55:44;7.70;99.90
47590;DHT22;33316;52.298;9.056;2023-12-20T02:58:12;7.70;99.90
47590;DHT22;33316;52.298;9.056;2023-12-20T03:00:39;7.70;99.90
47590;DHT22;33316;52.298;9.056;2023-12-20T03:03:06;7.60;99.90
47590;DHT22;33316;52.298;9.056;2023-12-20T03:05:33;7.60;99.90
47590;DHT22;33316;52.298;9.056;2023-12-20T03:08:00;7.60;99.90
47590;DHT22;33316;52.298;9.056;2023-12-20T03:10:27;7.60;99.90
47590;DHT22;33316;52.298;9.056;2023-12-20T03:12:54;7.60;99.90
47590;DHT22;33316;52.298;9.056;2023-12-20T03:15:22;7.60;99.90
47590;DHT22;33316;52.298;9.056;2023-12-20T03:17:49;7.60;99.90
47590;DHT22;33316;52.298;9.056;2023-12-20T03:20:15;7.50;99.90
47590;DHT22;33316;52.298;9.056;2023-12-20T03:22:42;7.50;99.90
47590;DHT22;33316;52.298;9.056;2023-12-20T03:25:09;7.50;99.90
47590;DHT22;33316;52.298;9.056;2023-12-20T03:27:37;7.50;99.90
47590;DHT22;33316;52.298;9.056;2023-12-20T03:30:06;7.50;99.90
47590;DHT22;33316;52.298;9.056;2023-12-20T03:32:34;7.50;99.90
47590;DHT22;33316;52.298;9.056;2023-12-20T03:35:03;7.50;99.90
47590;DHT22;33316;52.298;9.056;2023-12-20T03:37:30;7.50;99.90
47590;DHT22;33316;52.298;9.056;2023-12-20T03:39:57;7.50;99.90
47590;DHT22;33316;52.298;9.056;2023-12-20T03:42:24;7.50;99.90
47590;DHT22;33316;52.298;9.056;2023-12-20T03:44:51;7.50;99.90
47590;DHT22;33316;52.298;9.056;2023-12-20T03:47:18;7.50;99.90
47590;DHT22;33316;52.298;9.056;2023-12-20T03:49:47;7.50;99.90
47590;DHT22;33316;52.298;9.056;2023-12-20T03:52:14;7.50;99.90
47590;DHT22;33316;52.298;9.056;2023-12-20T03:54:41;7.50;99.90
47590;DHT22;33316;52.298;9.056;2023-12-20T03:57:08;7.50;99.90
47590;DHT22;33316;52.298;9.056;2023-12-20T03:59:35;7.50;99.90
47590;DHT22;33316;52.298;9.056;2023-12-20T04:02:02;7.50;99.90
47590;DHT22;33316;52.298;9.056;2023-12-20T04:04:29;7.50;99.90
47590;DHT22;33316;52.298;9.056;2023-12-20T04:06:58;7.50;99.90
47590;DHT22;33316;52.298;9.056;2023-12-20T04:09:25;7.60;99.90
47590;DHT22;33316;52.298;9.056;2023-12-20T04:11:52;7.60;99.90
47590;DHT22;33316;52.298;9.056;2023-12-20T04:14:18;7.60;99.90
47590;DHT22;33316;52.298;9.056;2023-12-20T04:16:45;7.50;99.90
47590;DHT22;33316;52.298;9.056;2023-12-20T04:19:12;7.60;99.90
47590;DHT22;33316;52.298;9.056;2023-12-20T04:21:40;7.60;99.90
47590;DHT22;33316;52.298;9.056;2023-12-20T04:24:08;7.60;99.90
47590;DHT22;33316;52.298;9.056;2023-12-20T04:26:35;7.60;99.90
47590;DHT22;33316;52.298;9.056;2023-12-20T04:29:02;7.60;99.90
47590;DHT22;33316;52.298;9.056;2023-12-20T04:31:29;7.60;99.90
47590;DHT22;33316;52.298;9.056;2023-12-20T04:33:56;7.60;99.90
47590;DHT22;33316;52.298;9.056;2023-12-20T04:36:23;7.60;99.90
47590;DHT22;33316;52.298;9.056;2023-12-20T04:38:50;7.60;99.90
47590;DHT22;33316;52.298;9.056;2023-12-20T04:41:19;7.60;99.90
47590;DHT22;33316;52.298;9.056;2023-12-20T04:43:46;7.60;99.90
47590;DHT22;33316;52.298;9.056;2023-12-20T04:46:13;7.70;99.90
47590;DHT22;33316;52.298;9.056;2023-12-20T04:48:40;7.60;99.90
47590;DHT22;33316;52.298;9.056;2023-12-20T04:51:07;7.70;99.90
47590;DHT22;33316;52.298;9.056;2023-12-20T04:53:34;7.70;99.90
47590;DHT22;33316;52.298;9.056;2023-12-20T04:56:01;7.70;99.90
47590;DHT22;33316;52.298;9.056;2023-12-20T04:58:29;7.70;99.90
47590;DHT22;33316;52.298;9.056;2023-12-20T05:00:56;7.70;99.90
47590;DHT22;33316;52.298;9.056;2023-12-20T05:03:23;7.70;99.90
47590;DHT22;33316;52.298;9.056;2023-12-20T05:05:50;7.70;99.90
47590;DHT22;33316;52.298;9.056;2023-12-20T05:08:16;7.70;99.90
47590;DHT22;33316;52.298;9.056;2023-12-20T05:10:43;7.70;99.90
47590;DHT22;33316;52.298;9.056;2023-12-20T05:13:12;7.70;99.90
47590;DHT22;33316;52.298;9.056;2023-12-20T05:15:41;7.70;99.90
47590;DHT22;33316;52.298;9.056;2023-12-20T05:18:08;7.70;99.90
47590;DHT22;33316;52.298;9.056;2023-12-20T05:20:35;7.80;99.90
47590;DHT22;33316;52.298;9.056;2023-12-20T05:23:03;7.80;99.90
47590;DHT22;33316;52.298;9.056;2023-12-20T05:25:30;7.80;99.90
47590;DHT22;33316;52.298;9.056;2023-12-20T05:27:57;7.80;99.90
47590;DHT22;33316;52.298;9.056;2023-12-20T05:30:24;7.80;99.90
47590;DHT22;33316;52.298;9.056;2023-12-20T05:32:53;7.80;99.90
47590;DHT22;33316;52.298;9.056;2023-12-20T05:35:20;7.80;99.90
47590;DHT22;33316;52.298;9.056;2023-12-20T05:37:47;7.80;99.90
47590;DHT22;33316;52.298;9.056;2023-12-20T05:40:14;7.80;99.90
47590;DHT22;33316;52.298;9.056;2023-12-20T05:42:41;7.80;99.90
47590;DHT22;33316;52.298;9.056;2023-12-20T05:45:09;7.80;99.90
47590;DHT22;33316;52.298;9.056;2023-12-20T05:47:36;7.80;99.90
47590;DHT22;33316;52.298;9.056;2023-12-20T05:50:05;7.80;99.90
47590;DHT22;33316;52.298;9.056;2023-12-20T05:52:33;7.80;99.90
47590;DHT22;33316;52.298;9.056;2023-12-20T05:55:00;7.80;99.90
47590;DHT22;33316;52.298;9.056;2023-12-20T05:57:27;7.80;99.90
47590;DHT22;33316;52.298;9.056;2023-12-20T05:59:54;7.80;99.90
47590;DHT22;33316;52.298;9.056;2023-12-20T06:02:21;7.80;99.90
47590;DHT22;33316;52.298;9.056;2023-12-20T06:04:48;7.80;99.90
47590;DHT22;33316;52.298;9.056;2023-12-20T06:07:17;7.80;99.90
47590;DHT22;33316;52.298;9.056;2023-12-20T06:09:44;7.80;99.90
47590;DHT22;33316;52.298;9.056;2023-12-20T06:12:11;7.80;99.90
47590;DHT22;33316;52.298;9.056;2023-12-20T06:14:38;7.80;99.90
47590;DHT22;33316;52.298;9.056;2023-12-20T06:17:04;7.80;99.90
47590;DHT22;33316;52.298;9.056;2023-12-20T06:19:32;7.80;99.90
47590;DHT22;33316;52.298;9.056;2023-12-20T06:22:01;7.80;99.90
47590;DHT22;33316;52.298;9.056;2023-12-20T06:24:29;7.80;99.90
47590;DHT22;33316;52.298;9.056;2023-12-20T06:26:59;7.80;99.90
47590;DHT22;33316;52.298;9.056;2023-12-20T06:29:26;7.80;99.90
47590;DHT22;33316;52.298;9.056;2023-12-20T06:31:53;7.80;99.90
47590;DHT22;33316;52.298;9.056;2023-12-20T06:34:21;7.80;99.90
47590;DHT22;33316;52.298;9.056;2023-12-20T06:36:47;7.80;99.90
47590;DHT22;33316;52.298;9.056;2023-12-20T06:39:14;7.80;99.90
47590;DHT22;33316;52.298;9.056;2023-12-20T06:41:43;7.80;99.90
47590;DHT22;33316;52.298;9.056;2023-12-20T06:44:10;7.70;99.90
47590;DHT22;33316;52.298;9.056;2023-12-20T06:46:37;7.70;99.90
47590;DHT22;33316;52.298;9.056;2023-12-20T06:49:04;7.70;99.90
47590;DHT22;33316;52.298;9.056;2023-12-20T06:51:31;7.70;99.90
47590;DHT22;33316;52.298;9.056;2023-12-20T06:53:58;7.70;99.90
47590;DHT22;33316;52.298;9.056;2023-12-20T06:56:25;7.70;99.90
47590;DHT22;33316;52.298;9.056;2023-12-20T06:58:54;7.70;99.90
47590;DHT22;33316;52.298;9.056;2023-12-20T07:01:20;7.70;99.90
47590;DHT22;33316;52.298;9.056;2023-12-20T07:03:48;7.70;99.90
47590;DHT22;33316;52.298;9.056;2023-12-20T07:06:15;7.70;99.90
47590;DHT22;33316;52.298;9.056;2023-12-20T07:08:42;7.70;99.90
47590;DHT22;33316;52.298;9.056;2023-12-20T07:11:09;7.70;99.90
47590;DHT22;33316;52.298;9.056;2023-12-20T07:13:36;7.70;99.90
47590;DHT22;33316;52.298;9.056;2023-12-20T07:16:07;7.70;99.90
47590;DHT22;33316;52.298;9.056;2023-12-20T07:18:34;7.60;99.90
47590;DHT22;33316;52.298;9.056;2023-12-20T07:21:02;7.70;99.90
47590;DHT22;33316;52.298;9.056;2023-12-20T07:23:30;7.70;99.90
47590;DHT22;33316;52.298;9.056;2023-12-20T07:25:57;7.60;99.90
47590;DHT22;33316;52.298;9.056;2023-12-20T07:28:24;7.70;99.90
47590;DHT22;33316;52.298;9.056;2023-12-20T07:30:51;7.60;99.90
47590;DHT22;33316;52.298;9.056;2023-12-20T07:33:19;7.60;99.90
47590;DHT22;33316;52.298;9.056;2023-12-20T07:35:47;7.70;99.90
47590;DHT22;33316;52.298;9.056;2023-12-20T07:38:14;7.70;99.90
47590;DHT22;33316;52.298;9.056;2023-12-20T07:40:41;7.60;99.90
47590;DHT22;33316;52.298;9.056;2023-12-20T07:43:11;7.60;99.90
47590;DHT22;33316;52.298;9.056;2023-12-20T07:45:38;7.60;99.90
47590;DHT22;33316;52.298;9.056;2023-12-20T07:48:06;7.60;99.90
47590;DHT22;33316;52.298;9.056;2023-12-20T07:50:35;7.60;99.90
47590;DHT22;33316;52.298;9.056;2023-12-20T07:53:02;7.60;99.90
47590;DHT22;33316;52.298;9.056;2023-12-20T07:55:29;7.60;99.90
47590;DHT22;33316;52.298;9.056;2023-12-20T07:57:57;7.60;99.90
47590;DHT22;33316;52.298;9.056;2023-12-20T08:00:24;7.60;99.90
47590;DHT22;33316;52.298;9.056;2023-12-20T08:02:51;7.60;99.90
47590;DHT22;33316;52.298;9.056;2023-12-20T08:05:21;7.60;99.90
47590;DHT22;33316;52.298;9.056;2023-12-20T08:07:49;7.60;99.90
47590;DHT22;33316;52.298;9.056;2023-12-20T08:10:16;7.60;99.90
47590;DHT22;33316;52.298;9.056;2023-12-20T08:12:45;7.60;99.90
47590;DHT22;33316;52.298;9.056;2023-12-20T08:15:11;7.60;99.90
47590;DHT22;33316;52.298;9.056;2023-12-20T08:17:40;7.60;99.90
47590;DHT22;33316;52.298;9.056;2023-12-20T08:20:08;7.60;99.90
47590;DHT22;33316;52.298;9.056;2023-12-20T08:22:35;7.60;99.90
47590;DHT22;33316;52.298;9.056;2023-12-20T08:25:05;7.60;99.90
47590;DHT22;33316;52.298;9.056;2023-12-20T08:27:32;7.60;99.90
47590;DHT22;33316;52.298;9.056;2023-12-20T08:29:59;7.60;99.90
47590;DHT22;33316;52.298;9.056;2023-12-20T08:32:26;7.60;99.90
47590;DHT22;33316;52.298;9.056;2023-12-20T08:34:53;7.70;99.90
47590;DHT22;33316;52.298;9.056;2023-12-20T08:37:20;7.70;99.90
47590;DHT22;33316;52.298;9.056;2023-12-20T08:39:48;7.70;99.90
47590;DHT22;33316;52.298;9.056;2023-12-20T08:42:16;7.70;99.90
47590;DHT22;33316;52.298;9.056;2023-12-20T08:44:43;7.70;99.90
47590;DHT22;33316;52.298;9.056;2023-12-20T08:47:10;7.70;99.90
47590;DHT22;33316;52.298;9.056;2023-12-20T08:49:38;7.70;99.90
47590;DHT22;33316;52.298;9.056;2023-12-20T08:52:05;7.70;99.90
47590;DHT22;33316;52.298;9.056;2023-12-20T08:54:32;7.70;99.90
47590;DHT22;33316;52.298;9.056;2023-12-20T08:56:59;7.70;99.90
47590;DHT22;33316;52.298;9.056;2023-12-20T08:59:28;7.70;99.90
47590;DHT22;33316;52.298;9.056;2023-12-20T09:01:55;7.70;99.90
47590;DHT22;33316;52.298;9.056;2023-12-20T09:04:22;7.70;99.90
47590;DHT22;33316;52.298;9.056;2023-12-20T09:06:50;7.70;99.90
47590;DHT22;33316;52.298;9.056;2023-12-20T09:09:17;7.70;99.90
47590;DHT22;33316;52.298;9.056;2023-12-20T09:11:44;7.70;99.90
47590;DHT22;33316;52.298;9.056;2023-12-20T09:14:11;7.70;99.90
47590;DHT22;33316;52.298;9.056;2023-12-20T09:16:40;7.70;99.90
47590;DHT22;33316;52.298;9.056;2023-12-20T09:19:07;7.70;99.90
47590;DHT22;33316;52.298;9.056;2023-12-20T09:21:35;7.70;99.90
47590;DHT22;33316;52.298;9.056;2023-12-20T09:24:02;7.70;99.90
47590;DHT22;33316;52.298;9.056;2023-12-20T09:26:29;7.70;99.90
47590;DHT22;33316;52.298;9.056;2023-12-20T09:28:56;7.70;99.90
47590;DHT22;33316;52.298;9.056;2023-12-20T09:31:23;7.70;99.90
47590;DHT22;33316;52.298;9.056;2023-12-20T09:33:52;7.80;99.90
47590;DHT22;33316;52.298;9.056;2023-12-20T09:36:19;7.80;99.90
47590;DHT22;33316;52.298;9.056;2023-12-20T09:38:46;7.80;99.90
47590;DHT22;33316;52.298;9.056;2023-12-20T09:41:13;7.80;99.90
47590;DHT22;33316;52.298;9.056;2023-12-20T09:43:41;7.80;99.90
47590;DHT22;33316;52.298;9.056;2023-12-20T09:46:10;7.80;99.90
47590;DHT22;33316;52.298;9.056;2023-12-20T09:48:39;7.80;99.90
47590;DHT22;33316;52.298;9.056;2023-12-20T09:51:09;7.90;99.90
47590;DHT22;33316;52.298;9.056;2023-12-20T09:53:37;7.90;99.90
47590;DHT22;33316;52.298;9.056;2023-12-20T09:56:06;7.90;99.90
47590;DHT22;33316;52.298;9.056;2023-12-20T09:58:38;7.90;99.90
47590;DHT22;33316;52.298;9.056;2023-12-20T10:01:08;7.90;99.90
47590;DHT22;33316;52.298;9.056;2023-12-20T10:03:35;7.90;99.90
47590;DHT22;33316;52.298;9.056;2023-12-20T10:06:04;7.90;99.90
47590;DHT22;33316;52.298;9.056;2023-12-20T10:08:32;7.90;99.90
47590;DHT22;33316;52.298;9.056;2023-12-20T10:10:59;8.00;99.90
47590;DHT22;33316;52.298;9.056;2023-12-20T10:13:28;8.00;99.90
47590;DHT22;33316;52.298;9.056;2023-12-20T10:15:55;8.00;99.90
47590;DHT22;33316;52.298;9.056;2023-12-20T10:18:25;8.00;99.90
47590;DHT22;33316;52.298;9.056;2023-12-20T10:20:52;8.00;99.90
47590;DHT22;33316;52.298;9.056;2023-12-20T10:23:20;8.00;99.90
47590;DHT22;33316;52.298;9.056;2023-12-20T10:25:57;8.00;99.90
47590;DHT22;33316;52.298;9.056;2023-12-20T10:28:25;8.00;99.90
47590;DHT22;33316;52.298;9.056;2023-12-20T10:30:54;8.00;99.90
47590;DHT22;33316;52.298;9.056;2023-12-20T10:33:26;8.00;99.90
47590;DHT22;33316;52.298;9.056;2023-12-20T10:35:54;8.00;99.90
47590;DHT22;33316;52.298;9.056;2023-12-20T10:38:22;8.00;99.90
47590;DHT22;33316;52.298;9.056;2023-12-20T10:40:53;8.00;99.90
47590;DHT22;33316;52.298;9.056;2023-12-20T10:43:23;8.10;99.90
47590;DHT22;33316;52.298;9.056;2023-12-20T10:45:52;8.10;99.90
47590;DHT22;33316;52.298;9.056;2023-12-20T10:48:20;8.00;99.90
47590;DHT22;33316;52.298;9.056;2023-12-20T10:50:55;8.00;99.90
47590;DHT22;33316;52.298;9.056;2023-12-20T10:53:22;8.00;99.90
47590;DHT22;33316;52.298;9.056;2023-12-20T10:55:52;8.00;99.90
47590;DHT22;33316;52.298;9.056;2023-12-20T10:58:24;8.00;99.90
47590;DHT22;33316;52.298;9.056;2023-12-20T11:00:56;8.00;99.90
47590;DHT22;33316;52.298;9.056;2023-12-20T11:03:28;8.00;99.90
47590;DHT22;33316;52.298;9.056;2023-12-20T11:06:03;8.00;99.90
47590;DHT22;33316;52.298;9.056;2023-12-20T11:08:35;8.00;99.90
47590;DHT22;33316;52.298;9.056;2023-12-20T11:11:06;8.10;99.90
47590;DHT22;33316;52.298;9.056;2023-12-20T11:13:35;8.10;99.90
47590;DHT22;33316;52.298;9.056;2023-12-20T11:16:03;8.10;99.90
47590;DHT22;33316;52.298;9.056;2023-12-20T11:18:33;8.10;99.90
47590;DHT22;33316;52.298;9.056;2023-12-20T11:21:02;8.10;99.90
47590;DHT22;33316;52.298;9.056;2023-12-20T11:23:30;8.10;99.90
47590;DHT22;33316;52.298;9.056;2023-12-20T11:25:58;8.20;99.90
47590;DHT22;33316;52.298;9.056;2023-12-20T11:28:27;8.20;99.90
47590;DHT22;33316;52.298;9.056;2023-12-20T11:31:02;8.20;99.90
47590;DHT22;33316;52.298;9.056;2023-12-20T11:33:32;8.20;99.90
47590;DHT22;33316;52.298;9.056;2023-12-20T11:36:02;8.20;99.90
47590;DHT22;33316;52.298;9.056;2023-12-20T11:38:36;8.20;99.90
47590;DHT22;33316;52.298;9.056;2023-12-20T11:41:05;8.20;99.90
47590;DHT22;33316;52.298;9.056;2023-12-20T11:43:35;8.20;99.90
47590;DHT22;33316;52.298;9.056;2023-12-20T11:46:07;8.20;99.90
47590;DHT22;33316;52.298;9.056;2023-12-20T11:48:38;8.20;99.90
47590;DHT22;33316;52.298;9.056;2023-12-20T11:51:09;8.20;99.90
47590;DHT22;33316;52.298;9.056;2023-12-20T11:53:37;8.20;99.90
47590;DHT22;33316;52.298;9.056;2023-12-20T11:56:05;8.20;99.90
47590;DHT22;33316;52.298;9.056;2023-12-20T11:58:33;8.20;99.90
47590;DHT22;33316;52.298;9.056;2023-12-20T12:01:00;8.10;99.90
47590;DHT22;33316;52.298;9.056;2023-12-20T12:03:31;8.00;99.90
47590;DHT22;33316;52.298;9.056;2023-12-20T12:05:58;8.00;99.90
47590;DHT22;33316;52.298;9.056;2023-12-20T12:08:28;7.90;99.90
47590;DHT22;33316;52.298;9.056;2023-12-20T12:10:58;7.80;99.90
47590;DHT22;33316;52.298;9.056;2023-12-20T12:13:25;7.80;99.90
47590;DHT22;33316;52.298;9.056;2023-12-20T12:15:53;7.70;99.90
47590;DHT22;33316;52.298;9.056;2023-12-20T12:18:20;7.70;99.90
47590;DHT22;33316;52.298;9.056;2023-12-20T12:20:50;7.60;99.90
47590;DHT22;33316;52.298;9.056;2023-12-20T12:23:23;7.60;99.90
47590;DHT22;33316;52.298;9.056;2023-12-20T12:25:50;7.50;99.90
47590;DHT22;33316;52.298;9.056;2023-12-20T12:28:17;7.50;99.90
47590;DHT22;33316;52.298;9.056;2023-12-20T12:30:56;7.50;99.90
47590;DHT22;33316;52.298;9.056;2023-12-20T12:33:24;7.50;99.90
47590;DHT22;33316;52.298;9.056;2023-12-20T12:35:52;7.50;99.90
47590;DHT22;33316;52.298;9.056;2023-12-20T12:38:20;7.50;99.90
47590;DHT22;33316;52.298;9.056;2023-12-20T12:40:50;7.50;99.90
47590;DHT22;33316;52.298;9.056;2023-12-20T12:43:19;7.50;99.90
47590;DHT22;33316;52.298;9.056;2023-12-20T12:45:46;7.50;99.90
47590;DHT22;33316;52.298;9.056;2023-12-20T12:48:13;7.50;99.90
47590;DHT22;33316;52.298;9.056;2023-12-20T12:50:43;7.60;99.90
47590;DHT22;33316;52.298;9.056;2023-12-20T12:53:12;7.60;99.90
47590;DHT22;33316;52.298;9.056;2023-12-20T12:55:40;7.60;99.90
47590;DHT22;33316;52.298;9.056;2023-12-20T12:58:08;7.60;99.90
47590;DHT22;33316;52.298;9.056;2023-12-20T13:00:36;7.60;99.90
47590;DHT22;33316;52.298;9.056;2023-12-20T13:03:03;7.70;99.90
47590;DHT22;33316;52.298;9.056;2023-12-20T13:05:30;7.60;99.90
47590;DHT22;33316;52.298;9.056;2023-12-20T13:07:57;7.60;99.90
47590;DHT22;33316;52.298;9.056;2023-12-20T13:10:25;7.70;99.90
47590;DHT22;33316;52.298;9.056;2023-12-20T13:12:52;7.70;99.90
47590;DHT22;33316;52.298;9.056;2023-12-20T13:15:19;7.70;99.90
47590;DHT22;33316;52.298;9.056;2023-12-20T13:17:46;7.70;99.90
47590;DHT22;33316;52.298;9.056;2023-12-20T13:20:13;7.70;99.90
47590;DHT22;33316;52.298;9.056;2023-12-20T13:22:40;7.70;99.90
47590;DHT22;33316;52.298;9.056;2023-12-20T13:25:09;7.70;99.90
47590;DHT22;33316;52.298;9.056;2023-12-20T13:27:40;7.70;99.90
47590;DHT22;33316;52.298;9.056;2023-12-20T13:30:10;7.70;99.90
47590;DHT22;33316;52.298;9.056;2023-12-20T13:32:37;7.80;99.90
47590;DHT22;33316;52.298;9.056;2023-12-20T13:35:05;7.80;99.90
47590;DHT22;33316;52.298;9.056;2023-12-20T13:37:33;7.80;99.90
47590;DHT22;33316;52.298;9.056;2023-12-20T13:40:00;7.80;99.90
47590;DHT22;33316;52.298;9.056;2023-12-20T13:42:28;7.80;99.90
47590;DHT22;33316;52.298;9.056;2023-12-20T13:44:59;7.70;99.90
47590;DHT22;33316;52.298;9.056;2023-12-20T13:47:26;7.80;99.90
47590;DHT22;33316;52.298;9.056;2023-12-20T13:49:54;7.80;99.90
47590;DHT22;33316;52.298;9.056;2023-12-20T13:52:21;7.80;99.90
47590;DHT22;33316;52.298;9.056;2023-12-20T13:54:48;7.80;99.90
47590;DHT22;33316;52.298;9.056;2023-12-20T13:57:15;7.70;99.90
47590;DHT22;33316;52.298;9.056;2023-12-20T13:59:42;7.70;99.90
47590;DHT22;33316;52.298;9.056;2023-12-20T14:02:11;7.70;99.90
47590;DHT22;33316;52.298;9.056;2023-12-20T14:04:38;7.70;99.90
47590;DHT22;33316;52.298;9.056;2023-12-20T14:07:06;7.70;99.90
47590;DHT22;33316;52.298;9.056;2023-12-20T14:09:33;7.70;99.90
47590;DHT22;33316;52.298;9.056;2023-12-20T14:12:00;7.70;99.90
47590;DHT22;33316;52.298;9.056;2023-12-20T14:14:27;7.70;99.90
47590;DHT22;33316;52.298;9.056;2023-12-20T14:16:55;7.70;99.90
47590;DHT22;33316;52.298;9.056;2023-12-20T14:19:23;7.70;99.90
47590;DHT22;33316;52.298;9.056;2023-12-20T14:21:51;7.70;99.90
47590;DHT22;33316;52.298;9.056;2023-12-20T14:24:18;7.70;99.90
47590;DHT22;33316;52.298;9.056;2023-12-20T14:26:48;7.70;99.90
47590;DHT22;33316;52.298;9.056;2023-12-20T14:29:15;7.70;99.90
47590;DHT22;33316;52.298;9.056;2023-12-20T14:31:42;7.70;99.90
47590;DHT22;33316;52.298;9.056;2023-12-20T14:34:09;7.70;99.90
47590;DHT22;33316;52.298;9.056;2023-12-20T14:36:37;7.60;99.90
47590;DHT22;33316;52.298;9.056;2023-12-20T14:39:05;7.60;99.90
47590;DHT22;33316;52.298;9.056;2023-12-20T14:41:34;7.70;99.90
47590;DHT22;33316;52.298;9.056;2023-12-20T14:44:01;7.70;99.90
47590;DHT22;33316;52.298;9.056;2023-12-20T14:46:30;7.70;99.90
47590;DHT22;33316;52.298;9.056;2023-12-20T14:48:59;7.70;99.90
47590;DHT22;33316;52.298;9.056;2023-12-20T14:51:27;7.70;99.90
47590;DHT22;33316;52.298;9.056;2023-12-20T14:53:58;7.70;99.90
47590;DHT22;33316;52.298;9.056;2023-12-20T14:56:26;7.70;99.90
47590;DHT22;33316;52.298;9.056;2023-12-20T14:58:53;7.70;99.90
47590;DHT22;33316;52.298;9.056;2023-12-20T15:01:21;7.70;99.90
47590;DHT22;33316;52.298;9.056;2023-12-20T15:03:49;7.70;99.90
47590;DHT22;33316;52.298;9.056;2023-12-20T15:06:17;7.70;99.90
47590;DHT22;33316;52.298;9.056;2023-12-20T15:08:46;7.70;99.90
47590;DHT22;33316;52.298;9.056;2023-12-20T15:11:19;7.70;99.90
47590;DHT22;33316;52.298;9.056;2023-12-20T15:13:46;7.70;99.90
47590;DHT22;33316;52.298;9.056;2023-12-20T15:16:20;7.70;99.90
47590;DHT22;33316;52.298;9.056;2023-12-20T15:18:47;7.70;99.90
47590;DHT22;33316;52.298;9.056;2023-12-20T15:21:15;7.70;99.90
47590;DHT22;33316;52.298;9.056;2023-12-20T15:23:42;7.70;99.90
47590;DHT22;33316;52.298;9.056;2023-12-20T15:26:20;7.70;99.90
47590;DHT22;33316;52.298;9.056;2023-12-20T15:28:47;7.70;99.90
47590;DHT22;33316;52.298;9.056;2023-12-20T15:31:14;7.70;99.90
47590;DHT22;33316;52.298;9.056;2023-12-20T15:33:41;7.70;99.90
47590;DHT22;33316;52.298;9.056;2023-12-20T15:36:09;7.70;99.90
47590;DHT22;33316;52.298;9.056;2023-12-20T15:38:38;7.70;99.90
47590;DHT22;33316;52.298;9.056;2023-12-20T15:41:18;7.80;99.90
47590;DHT22;33316;52.298;9.056;2023-12-20T15:43:45;7.70;99.90
47590;DHT22;33316;52.298;9.056;2023-12-20T15:46:13;7.70;99.90
47590;DHT22;33316;52.298;9.056;2023-12-20T15:48:40;7.70;99.90